Victor, Colorado
Current Conditions -  °F | °C
As of 4:56 AM on Monday 20 Oct 2014 (Local Time) from KCWN Reporting Station
Clear Clear  
Wind Chill: 51°   Ceiling: Unl
Heat Index: 51°   Visibility: 10mi
Dew Point: 37°   Wind: 6mph
Humidity: 59%   Direction: 180°S
Pressure: 30.23"   Gusts: NA
Location:  38.71°N, 105.14°W
Report Text: KCWN 201056Z AUTO 18005KT 10SM CLR 10/03 A3023 RMK AO2 SLP184 T01030026
Loading
Personal Weather Stations






























Interactive Weather Map
Tropical Storm Tracking
New forecast layout! Learn more

10-Day Weather Forecast

Advertisements
Track Severe Weather on mobile